sensor_id;sensor_type;location;lat;lon;timestamp;P1;durP1;ratioP1;P2;durP2;ratioP2
22270;SDS011;11304;53.520;10.104;2023-02-28T00:00:18;6.03;;;3.03;;
22270;SDS011;11304;53.520;10.104;2023-02-28T00:02:44;5.78;;;3.15;;
22270;SDS011;11304;53.520;10.104;2023-02-28T00:05:11;5.70;;;3.17;;
22270;SDS011;11304;53.520;10.104;2023-02-28T00:07:38;7.50;;;3.08;;
22270;SDS011;11304;53.520;10.104;2023-02-28T00:10:04;6.65;;;3.10;;
22270;SDS011;11304;53.520;10.104;2023-02-28T00:12:33;6.70;;;3.38;;
22270;SDS011;11304;53.520;10.104;2023-02-28T00:14:59;8.27;;;3.35;;
22270;SDS011;11304;53.520;10.104;2023-02-28T00:17:25;10.85;;;3.38;;
22270;SDS011;11304;53.520;10.104;2023-02-28T00:19:51;7.25;;;3.33;;
22270;SDS011;11304;53.520;10.104;2023-02-28T00:22:18;9.05;;;3.35;;
22270;SDS011;11304;53.520;10.104;2023-02-28T00:24:44;4.85;;;2.72;;
22270;SDS011;11304;53.520;10.104;2023-02-28T00:27:11;6.72;;;3.05;;
22270;SDS011;11304;53.520;10.104;2023-02-28T00:29:37;5.68;;;2.80;;
22270;SDS011;11304;53.520;10.104;2023-02-28T00:32:04;5.88;;;2.63;;
22270;SDS011;11304;53.520;10.104;2023-02-28T00:34:30;5.47;;;2.83;;
22270;SDS011;11304;53.520;10.104;2023-02-28T00:37:02;5.90;;;2.55;;
22270;SDS011;11304;53.520;10.104;2023-02-28T00:39:28;7.10;;;3.00;;
22270;SDS011;11304;53.520;10.104;2023-02-28T00:41:54;5.35;;;3.00;;
22270;SDS011;11304;53.520;10.104;2023-02-28T00:44:20;7.60;;;2.80;;
22270;SDS011;11304;53.520;10.104;2023-02-28T00:46:47;6.13;;;2.92;;
22270;SDS011;11304;53.520;10.104;2023-02-28T00:49:13;5.20;;;2.90;;
22270;SDS011;11304;53.520;10.104;2023-02-28T00:51:39;5.63;;;2.95;;
22270;SDS011;11304;53.520;10.104;2023-02-28T00:54:05;6.80;;;3.20;;
22270;SDS011;11304;53.520;10.104;2023-02-28T00:56:31;6.78;;;3.00;;
22270;SDS011;11304;53.520;10.104;2023-02-28T00:58:57;8.80;;;3.28;;
22270;SDS011;11304;53.520;10.104;2023-02-28T01:01:23;6.00;;;3.05;;
22270;SDS011;11304;53.520;10.104;2023-02-28T01:03:49;7.82;;;3.13;;
22270;SDS011;11304;53.520;10.104;2023-02-28T01:06:15;6.30;;;3.63;;
22270;SDS011;11304;53.520;10.104;2023-02-28T01:08:41;5.20;;;3.00;;
22270;SDS011;11304;53.520;10.104;2023-02-28T01:11:09;8.88;;;2.97;;
22270;SDS011;11304;53.520;10.104;2023-02-28T01:13:35;5.55;;;3.38;;
22270;SDS011;11304;53.520;10.104;2023-02-28T01:16:02;7.22;;;3.20;;
22270;SDS011;11304;53.520;10.104;2023-02-28T01:18:28;5.20;;;3.10;;
22270;SDS011;11304;53.520;10.104;2023-02-28T01:20:54;6.93;;;3.38;;
22270;SDS011;11304;53.520;10.104;2023-02-28T01:23:21;6.25;;;3.47;;
22270;SDS011;11304;53.520;10.104;2023-02-28T01:25:48;5.43;;;2.90;;
22270;SDS011;11304;53.520;10.104;2023-02-28T01:28:14;4.93;;;3.05;;
22270;SDS011;11304;53.520;10.104;2023-02-28T01:30:41;5.88;;;2.95;;
22270;SDS011;11304;53.520;10.104;2023-02-28T01:33:07;8.55;;;3.63;;
22270;SDS011;11304;53.520;10.104;2023-02-28T01:35:34;6.65;;;3.47;;
22270;SDS011;11304;53.520;10.104;2023-02-28T01:38:00;7.75;;;3.45;;
22270;SDS011;11304;53.520;10.104;2023-02-28T01:40:26;6.63;;;3.13;;
22270;SDS011;11304;53.520;10.104;2023-02-28T01:42:52;6.60;;;3.30;;
22270;SDS011;11304;53.520;10.104;2023-02-28T01:45:22;8.80;;;3.67;;
22270;SDS011;11304;53.520;10.104;2023-02-28T01:47:50;12.43;;;4.60;;
22270;SDS011;11304;53.520;10.104;2023-02-28T01:50:19;10.10;;;4.15;;
22270;SDS011;11304;53.520;10.104;2023-02-28T01:52:46;7.00;;;3.70;;
22270;SDS011;11304;53.520;10.104;2023-02-28T01:55:12;6.40;;;3.40;;
22270;SDS011;11304;53.520;10.104;2023-02-28T01:57:40;5.57;;;3.13;;
22270;SDS011;11304;53.520;10.104;2023-02-28T02:00:11;7.03;;;3.30;;
22270;SDS011;11304;53.520;10.104;2023-02-28T02:02:39;8.43;;;3.50;;
22270;SDS011;11304;53.520;10.104;2023-02-28T02:05:07;8.55;;;3.75;;
22270;SDS011;11304;53.520;10.104;2023-02-28T02:07:43;13.15;;;5.55;;
22270;SDS011;11304;53.520;10.104;2023-02-28T02:15:24;11.50;;;4.18;;
22270;SDS011;11304;53.520;10.104;2023-02-28T02:17:52;7.88;;;4.07;;
22270;SDS011;11304;53.520;10.104;2023-02-28T02:33:21;8.82;;;4.03;;
22270;SDS011;11304;53.520;10.104;2023-02-28T02:40:58;9.70;;;4.40;;
22270;SDS011;11304;53.520;10.104;2023-02-28T02:43:31;6.75;;;3.70;;
22270;SDS011;11304;53.520;10.104;2023-02-28T02:46:04;5.75;;;3.25;;
22270;SDS011;11304;53.520;10.104;2023-02-28T02:48:32;7.22;;;3.78;;
22270;SDS011;11304;53.520;10.104;2023-02-28T02:51:01;10.30;;;4.30;;
22270;SDS011;11304;53.520;10.104;2023-02-28T02:53:33;7.15;;;3.72;;
22270;SDS011;11304;53.520;10.104;2023-02-28T02:56:01;8.38;;;4.47;;
22270;SDS011;11304;53.520;10.104;2023-02-28T02:58:29;7.88;;;4.43;;
22270;SDS011;11304;53.520;10.104;2023-02-28T03:00:57;7.65;;;4.22;;
22270;SDS011;11304;53.520;10.104;2023-02-28T03:03:24;10.45;;;4.40;;
22270;SDS011;11304;53.520;10.104;2023-02-28T03:05:54;7.93;;;3.72;;
22270;SDS011;11304;53.520;10.104;2023-02-28T03:08:20;8.18;;;4.22;;
22270;SDS011;11304;53.520;10.104;2023-02-28T03:10:51;7.80;;;3.83;;
22270;SDS011;11304;53.520;10.104;2023-02-28T03:18:24;8.35;;;3.90;;
22270;SDS011;11304;53.520;10.104;2023-02-28T03:20:57;6.68;;;3.80;;
22270;SDS011;11304;53.520;10.104;2023-02-28T03:26:21;7.03;;;4.18;;
22270;SDS011;11304;53.520;10.104;2023-02-28T03:29:13;8.15;;;3.90;;
22270;SDS011;11304;53.520;10.104;2023-02-28T03:31:45;10.75;;;5.03;;
22270;SDS011;11304;53.520;10.104;2023-02-28T03:34:25;9.10;;;4.57;;
22270;SDS011;11304;53.520;10.104;2023-02-28T03:36:57;10.48;;;4.72;;
22270;SDS011;11304;53.520;10.104;2023-02-28T03:39:36;9.45;;;4.13;;
22270;SDS011;11304;53.520;10.104;2023-02-28T03:42:10;9.68;;;4.68;;
22270;SDS011;11304;53.520;10.104;2023-02-28T03:44:39;9.77;;;4.90;;
22270;SDS011;11304;53.520;10.104;2023-02-28T03:47:11;8.50;;;5.05;;
22270;SDS011;11304;53.520;10.104;2023-02-28T03:55:03;10.18;;;4.90;;
22270;SDS011;11304;53.520;10.104;2023-02-28T03:57:43;13.57;;;5.55;;
22270;SDS011;11304;53.520;10.104;2023-02-28T04:00:21;9.73;;;5.00;;
22270;SDS011;11304;53.520;10.104;2023-02-28T04:02:50;9.52;;;4.47;;
22270;SDS011;11304;53.520;10.104;2023-02-28T04:05:18;11.57;;;5.40;;
22270;SDS011;11304;53.520;10.104;2023-02-28T04:07:44;8.50;;;4.60;;
22270;SDS011;11304;53.520;10.104;2023-02-28T04:10:11;8.93;;;4.63;;
22270;SDS011;11304;53.520;10.104;2023-02-28T04:12:37;7.13;;;4.20;;
22270;SDS011;11304;53.520;10.104;2023-02-28T04:15:03;8.55;;;5.03;;
22270;SDS011;11304;53.520;10.104;2023-02-28T04:17:30;11.65;;;5.25;;
22270;SDS011;11304;53.520;10.104;2023-02-28T04:19:56;9.38;;;4.47;;
22270;SDS011;11304;53.520;10.104;2023-02-28T04:22:22;8.98;;;4.53;;
22270;SDS011;11304;53.520;10.104;2023-02-28T04:24:51;10.00;;;4.72;;
22270;SDS011;11304;53.520;10.104;2023-02-28T04:27:19;13.93;;;4.97;;
22270;SDS011;11304;53.520;10.104;2023-02-28T04:29:45;8.30;;;4.30;;
22270;SDS011;11304;53.520;10.104;2023-02-28T04:32:12;7.07;;;4.22;;
22270;SDS011;11304;53.520;10.104;2023-02-28T04:34:38;8.88;;;4.60;;
22270;SDS011;11304;53.520;10.104;2023-02-28T04:37:04;8.75;;;4.63;;
22270;SDS011;11304;53.520;10.104;2023-02-28T04:39:34;8.77;;;5.15;;
22270;SDS011;11304;53.520;10.104;2023-02-28T04:42:00;12.05;;;5.40;;
22270;SDS011;11304;53.520;10.104;2023-02-28T04:44:26;10.75;;;5.30;;
22270;SDS011;11304;53.520;10.104;2023-02-28T04:46:52;8.80;;;5.03;;
22270;SDS011;11304;53.520;10.104;2023-02-28T04:49:18;9.95;;;5.28;;
22270;SDS011;11304;53.520;10.104;2023-02-28T04:51:44;11.45;;;5.20;;
22270;SDS011;11304;53.520;10.104;2023-02-28T04:54:10;9.50;;;5.28;;
22270;SDS011;11304;53.520;10.104;2023-02-28T04:56:38;7.82;;;4.82;;
22270;SDS011;11304;53.520;10.104;2023-02-28T04:59:04;7.38;;;4.53;;
22270;SDS011;11304;53.520;10.104;2023-02-28T05:01:31;9.02;;;5.05;;
22270;SDS011;11304;53.520;10.104;2023-02-28T05:03:58;9.10;;;4.90;;
22270;SDS011;11304;53.520;10.104;2023-02-28T05:06:25;11.80;;;5.45;;
22270;SDS011;11304;53.520;10.104;2023-02-28T05:08:52;9.75;;;5.15;;
22270;SDS011;11304;53.520;10.104;2023-02-28T05:13:45;11.52;;;5.57;;
22270;SDS011;11304;53.520;10.104;2023-02-28T05:16:11;10.25;;;5.18;;
22270;SDS011;11304;53.520;10.104;2023-02-28T05:18:37;12.70;;;6.53;;
22270;SDS011;11304;53.520;10.104;2023-02-28T05:21:03;10.45;;;5.63;;
22270;SDS011;11304;53.520;10.104;2023-02-28T05:23:30;12.95;;;6.35;;
22270;SDS011;11304;53.520;10.104;2023-02-28T05:25:56;12.85;;;6.10;;
22270;SDS011;11304;53.520;10.104;2023-02-28T05:28:22;13.00;;;6.65;;
22270;SDS011;11304;53.520;10.104;2023-02-28T05:30:48;11.25;;;5.63;;
22270;SDS011;11304;53.520;10.104;2023-02-28T05:33:14;13.18;;;5.78;;
22270;SDS011;11304;53.520;10.104;2023-02-28T05:35:41;12.82;;;5.78;;
22270;SDS011;11304;53.520;10.104;2023-02-28T05:38:10;15.73;;;5.70;;
22270;SDS011;11304;53.520;10.104;2023-02-28T05:40:37;14.02;;;6.88;;
22270;SDS011;11304;53.520;10.104;2023-02-28T05:43:05;12.98;;;6.07;;
22270;SDS011;11304;53.520;10.104;2023-02-28T05:45:31;8.25;;;5.50;;
22270;SDS011;11304;53.520;10.104;2023-02-28T05:47:57;12.48;;;5.82;;
22270;SDS011;11304;53.520;10.104;2023-02-28T05:50:23;11.68;;;5.13;;
22270;SDS011;11304;53.520;10.104;2023-02-28T05:52:50;10.90;;;5.30;;
22270;SDS011;11304;53.520;10.104;2023-02-28T05:55:16;12.05;;;5.47;;
22270;SDS011;11304;53.520;10.104;2023-02-28T05:57:43;11.80;;;6.15;;
22270;SDS011;11304;53.520;10.104;2023-02-28T06:00:09;8.00;;;4.93;;
22270;SDS011;11304;53.520;10.104;2023-02-28T06:02:36;18.17;;;6.45;;
22270;SDS011;11304;53.520;10.104;2023-02-28T06:05:02;10.80;;;5.65;;
22270;SDS011;11304;53.520;10.104;2023-02-28T06:07:28;11.52;;;6.00;;
22270;SDS011;11304;53.520;10.104;2023-02-28T06:09:54;14.65;;;6.32;;
22270;SDS011;11304;53.520;10.104;2023-02-28T06:12:20;9.95;;;5.30;;
22270;SDS011;11304;53.520;10.104;2023-02-28T06:14:46;15.90;;;5.93;;
22270;SDS011;11304;53.520;10.104;2023-02-28T06:17:12;11.00;;;6.00;;
22270;SDS011;11304;53.520;10.104;2023-02-28T06:19:38;11.68;;;5.97;;
22270;SDS011;11304;53.520;10.104;2023-02-28T06:22:06;11.25;;;6.00;;
22270;SDS011;11304;53.520;10.104;2023-02-28T06:24:32;11.65;;;5.68;;
22270;SDS011;11304;53.520;10.104;2023-02-28T06:26:58;12.00;;;6.00;;
22270;SDS011;11304;53.520;10.104;2023-02-28T06:29:30;14.88;;;6.95;;
22270;SDS011;11304;53.520;10.104;2023-02-28T06:31:56;16.48;;;7.53;;
22270;SDS011;11304;53.520;10.104;2023-02-28T06:34:22;11.80;;;7.00;;
22270;SDS011;11304;53.520;10.104;2023-02-28T06:36:49;11.35;;;6.55;;
22270;SDS011;11304;53.520;10.104;2023-02-28T06:39:16;12.25;;;6.30;;
22270;SDS011;11304;53.520;10.104;2023-02-28T06:41:42;10.95;;;6.28;;
22270;SDS011;11304;53.520;10.104;2023-02-28T06:44:16;13.30;;;6.65;;
22270;SDS011;11304;53.520;10.104;2023-02-28T06:46:43;10.95;;;6.07;;
22270;SDS011;11304;53.520;10.104;2023-02-28T06:49:09;10.38;;;5.47;;
22270;SDS011;11304;53.520;10.104;2023-02-28T06:51:36;10.30;;;5.32;;
22270;SDS011;11304;53.520;10.104;2023-02-28T06:54:03;11.73;;;5.10;;
22270;SDS011;11304;53.520;10.104;2023-02-28T06:56:29;9.75;;;4.82;;
22270;SDS011;11304;53.520;10.104;2023-02-28T06:58:55;10.70;;;5.25;;
22270;SDS011;11304;53.520;10.104;2023-02-28T07:01:22;9.15;;;4.90;;
22270;SDS011;11304;53.520;10.104;2023-02-28T07:03:49;8.82;;;4.68;;
22270;SDS011;11304;53.520;10.104;2023-02-28T07:06:26;6.82;;;4.57;;
22270;SDS011;11304;53.520;10.104;2023-02-28T07:08:52;11.85;;;5.45;;
22270;SDS011;11304;53.520;10.104;2023-02-28T07:11:19;7.38;;;4.78;;
22270;SDS011;11304;53.520;10.104;2023-02-28T07:13:47;9.13;;;5.20;;
22270;SDS011;11304;53.520;10.104;2023-02-28T07:16:13;12.27;;;5.30;;
22270;SDS011;11304;53.520;10.104;2023-02-28T07:18:39;8.55;;;4.93;;
22270;SDS011;11304;53.520;10.104;2023-02-28T07:21:07;11.18;;;5.05;;
22270;SDS011;11304;53.520;10.104;2023-02-28T07:23:33;9.23;;;5.38;;
22270;SDS011;11304;53.520;10.104;2023-02-28T07:26:00;12.35;;;5.55;;
22270;SDS011;11304;53.520;10.104;2023-02-28T07:28:26;10.05;;;5.50;;
22270;SDS011;11304;53.520;10.104;2023-02-28T07:30:52;10.70;;;5.43;;
22270;SDS011;11304;53.520;10.104;2023-02-28T07:33:18;10.07;;;5.65;;
22270;SDS011;11304;53.520;10.104;2023-02-28T07:35:44;8.48;;;4.95;;
22270;SDS011;11304;53.520;10.104;2023-02-28T07:38:10;9.75;;;5.18;;
22270;SDS011;11304;53.520;10.104;2023-02-28T07:40:38;9.75;;;5.38;;
22270;SDS011;11304;53.520;10.104;2023-02-28T07:43:05;9.95;;;5.45;;
22270;SDS011;11304;53.520;10.104;2023-02-28T07:45:31;9.43;;;5.78;;
22270;SDS011;11304;53.520;10.104;2023-02-28T07:47:59;9.25;;;5.35;;
22270;SDS011;11304;53.520;10.104;2023-02-28T07:50:25;9.25;;;5.57;;
22270;SDS011;11304;53.520;10.104;2023-02-28T07:52:55;8.38;;;5.38;;
22270;SDS011;11304;53.520;10.104;2023-02-28T07:55:22;10.77;;;5.43;;
22270;SDS011;11304;53.520;10.104;2023-02-28T07:57:48;9.27;;;5.43;;
22270;SDS011;11304;53.520;10.104;2023-02-28T08:00:14;9.55;;;5.30;;
22270;SDS011;11304;53.520;10.104;2023-02-28T08:02:40;12.43;;;5.70;;
22270;SDS011;11304;53.520;10.104;2023-02-28T08:05:06;9.27;;;5.50;;
22270;SDS011;11304;53.520;10.104;2023-02-28T08:07:33;9.40;;;5.38;;
22270;SDS011;11304;53.520;10.104;2023-02-28T08:09:59;11.48;;;5.28;;
22270;SDS011;11304;53.520;10.104;2023-02-28T08:12:25;10.63;;;5.93;;
22270;SDS011;11304;53.520;10.104;2023-02-28T08:14:51;9.25;;;5.95;;
22270;SDS011;11304;53.520;10.104;2023-02-28T08:17:17;9.23;;;5.20;;
22270;SDS011;11304;53.520;10.104;2023-02-28T08:19:47;9.77;;;5.85;;
22270;SDS011;11304;53.520;10.104;2023-02-28T08:22:13;14.88;;;6.10;;
22270;SDS011;11304;53.520;10.104;2023-02-28T08:24:40;11.50;;;5.07;;
22270;SDS011;11304;53.520;10.104;2023-02-28T08:27:07;14.30;;;5.43;;
22270;SDS011;11304;53.520;10.104;2023-02-28T08:29:33;11.35;;;5.63;;
22270;SDS011;11304;53.520;10.104;2023-02-28T08:31:59;17.15;;;6.32;;
22270;SDS011;11304;53.520;10.104;2023-02-28T08:34:26;11.73;;;5.22;;
22270;SDS011;11304;53.520;10.104;2023-02-28T08:39:20;9.60;;;4.97;;
22270;SDS011;11304;53.520;10.104;2023-02-28T08:41:46;11.32;;;5.93;;
22270;SDS011;11304;53.520;10.104;2023-02-28T08:44:12;12.02;;;5.25;;
22270;SDS011;11304;53.520;10.104;2023-02-28T08:46:38;11.82;;;5.38;;
22270;SDS011;11304;53.520;10.104;2023-02-28T08:49:04;10.60;;;5.65;;
22270;SDS011;11304;53.520;10.104;2023-02-28T08:51:31;8.88;;;5.20;;
22270;SDS011;11304;53.520;10.104;2023-02-28T08:53:59;11.35;;;5.40;;
22270;SDS011;11304;53.520;10.104;2023-02-28T08:56:26;8.35;;;4.75;;
22270;SDS011;11304;53.520;10.104;2023-02-28T08:58:53;10.80;;;4.75;;
22270;SDS011;11304;53.520;10.104;2023-02-28T09:01:21;14.50;;;4.83;;
22270;SDS011;11304;53.520;10.104;2023-02-28T09:03:48;8.88;;;5.00;;
22270;SDS011;11304;53.520;10.104;2023-02-28T09:06:15;8.90;;;4.72;;
22270;SDS011;11304;53.520;10.104;2023-02-28T09:08:41;10.32;;;4.25;;
22270;SDS011;11304;53.520;10.104;2023-02-28T09:11:08;7.20;;;4.50;;
22270;SDS011;11304;53.520;10.104;2023-02-28T09:13:34;10.32;;;4.75;;
22270;SDS011;11304;53.520;10.104;2023-02-28T09:16:04;13.57;;;4.35;;
22270;SDS011;11304;53.520;10.104;2023-02-28T09:18:31;9.45;;;4.25;;
22270;SDS011;11304;53.520;10.104;2023-02-28T09:20:57;8.48;;;3.50;;
22270;SDS011;11304;53.520;10.104;2023-02-28T09:23:23;6.50;;;3.60;;
22270;SDS011;11304;53.520;10.104;2023-02-28T09:25:50;6.25;;;3.63;;
22270;SDS011;11304;53.520;10.104;2023-02-28T09:28:17;5.65;;;3.25;;
22270;SDS011;11304;53.520;10.104;2023-02-28T09:30:44;10.52;;;3.63;;
22270;SDS011;11304;53.520;10.104;2023-02-28T09:33:10;6.35;;;3.63;;
22270;SDS011;11304;53.520;10.104;2023-02-28T09:35:36;6.15;;;3.63;;
22270;SDS011;11304;53.520;10.104;2023-02-28T09:38:02;7.18;;;3.47;;
22270;SDS011;11304;53.520;10.104;2023-02-28T09:40:29;8.10;;;3.47;;
22270;SDS011;11304;53.520;10.104;2023-02-28T09:42:56;6.25;;;3.50;;
22270;SDS011;11304;53.520;10.104;2023-02-28T09:45:24;6.78;;;3.47;;
22270;SDS011;11304;53.520;10.104;2023-02-28T09:47:53;6.35;;;3.45;;
22270;SDS011;11304;53.520;10.104;2023-02-28T09:50:23;12.30;;;3.90;;
22270;SDS011;11304;53.520;10.104;2023-02-28T09:52:54;10.40;;;3.90;;
22270;SDS011;11304;53.520;10.104;2023-02-28T09:58:05;13.25;;;3.95;;
22270;SDS011;11304;53.520;10.104;2023-02-28T10:00:36;13.70;;;3.65;;
22270;SDS011;11304;53.520;10.104;2023-02-28T10:15:25;3.70;;;1.50;;
22270;SDS011;11304;53.520;10.104;2023-02-28T10:17:54;3.20;;;1.63;;
22270;SDS011;11304;53.520;10.104;2023-02-28T10:20:22;4.65;;;1.60;;
22270;SDS011;11304;53.520;10.104;2023-02-28T10:25:25;6.43;;;1.98;;
22270;SDS011;11304;53.520;10.104;2023-02-28T10:28:10;3.55;;;1.50;;
22270;SDS011;11304;53.520;10.104;2023-02-28T10:30:37;2.28;;;1.08;;
22270;SDS011;11304;53.520;10.104;2023-02-28T10:33:05;2.63;;;1.10;;
22270;SDS011;11304;53.520;10.104;2023-02-28T10:35:31;1.88;;;1.00;;
22270;SDS011;11304;53.520;10.104;2023-02-28T10:37:59;2.50;;;1.15;;
22270;SDS011;11304;53.520;10.104;2023-02-28T10:40:29;3.40;;;1.55;;
22270;SDS011;11304;53.520;10.104;2023-02-28T10:45:21;5.32;;;1.20;;
22270;SDS011;11304;53.520;10.104;2023-02-28T10:53:08;3.85;;;1.48;;
22270;SDS011;11304;53.520;10.104;2023-02-28T10:55:39;3.13;;;1.38;;
22270;SDS011;11304;53.520;10.104;2023-02-28T10:58:22;1.40;;;0.80;;
22270;SDS011;11304;53.520;10.104;2023-02-28T11:00:48;2.38;;;1.20;;
22270;SDS011;11304;53.520;10.104;2023-02-28T11:03:31;3.53;;;1.40;;
22270;SDS011;11304;53.520;10.104;2023-02-28T11:05:58;3.20;;;1.17;;
22270;SDS011;11304;53.520;10.104;2023-02-28T11:08:24;3.25;;;1.17;;
22270;SDS011;11304;53.520;10.104;2023-02-28T11:10:54;2.05;;;1.02;;
22270;SDS011;11304;53.520;10.104;2023-02-28T11:13:24;3.97;;;1.10;;
22270;SDS011;11304;53.520;10.104;2023-02-28T11:15:54;2.92;;;1.13;;
22270;SDS011;11304;53.520;10.104;2023-02-28T11:18:43;3.60;;;1.45;;
22270;SDS011;11304;53.520;10.104;2023-02-28T11:21:07;3.15;;;1.40;;
22270;SDS011;11304;53.520;10.104;2023-02-28T11:23:34;2.83;;;1.33;;
22270;SDS011;11304;53.520;10.104;2023-02-28T11:26:02;2.83;;;1.10;;
22270;SDS011;11304;53.520;10.104;2023-02-28T11:28:31;1.98;;;1.30;;
22270;SDS011;11304;53.520;10.104;2023-02-28T11:33:40;2.67;;;1.20;;
22270;SDS011;11304;53.520;10.104;2023-02-28T11:36:11;2.83;;;0.95;;
22270;SDS011;11304;53.520;10.104;2023-02-28T11:38:37;2.95;;;1.40;;
22270;SDS011;11304;53.520;10.104;2023-02-28T11:51:43;3.78;;;1.60;;
22270;SDS011;11304;53.520;10.104;2023-02-28T11:56:41;4.07;;;1.33;;
22270;SDS011;11304;53.520;10.104;2023-02-28T11:59:14;3.20;;;1.25;;
22270;SDS011;11304;53.520;10.104;2023-02-28T12:01:55;3.15;;;1.42;;
22270;SDS011;11304;53.520;10.104;2023-02-28T12:17:57;2.65;;;1.38;;
22270;SDS011;11304;53.520;10.104;2023-02-28T12:25:37;2.15;;;1.20;;
22270;SDS011;11304;53.520;10.104;2023-02-28T12:28:07;2.28;;;1.20;;
22270;SDS011;11304;53.520;10.104;2023-02-28T12:30:35;3.53;;;1.40;;
22270;SDS011;11304;53.520;10.104;2023-02-28T12:33:07;1.95;;;1.33;;
22270;SDS011;11304;53.520;10.104;2023-02-28T12:35:42;2.75;;;1.50;;
22270;SDS011;11304;53.520;10.104;2023-02-28T12:38:12;5.22;;;1.70;;
22270;SDS011;11304;53.520;10.104;2023-02-28T12:43:07;2.47;;;1.23;;
22270;SDS011;11304;53.520;10.104;2023-02-28T12:45:40;2.60;;;1.13;;
22270;SDS011;11304;53.520;10.104;2023-02-28T12:48:08;4.00;;;1.40;;
22270;SDS011;11304;53.520;10.104;2023-02-28T12:50:35;7.03;;;1.73;;
22270;SDS011;11304;53.520;10.104;2023-02-28T12:53:03;4.13;;;1.23;;
22270;SDS011;11304;53.520;10.104;2023-02-28T13:00:55;3.42;;;1.30;;
22270;SDS011;11304;53.520;10.104;2023-02-28T13:10:55;3.70;;;1.35;;
22270;SDS011;11304;53.520;10.104;2023-02-28T13:13:26;3.60;;;1.65;;
22270;SDS011;11304;53.520;10.104;2023-02-28T13:16:10;4.35;;;1.25;;
22270;SDS011;11304;53.520;10.104;2023-02-28T13:18:42;3.15;;;1.30;;
22270;SDS011;11304;53.520;10.104;2023-02-28T13:21:09;3.38;;;1.70;;
22270;SDS011;11304;53.520;10.104;2023-02-28T13:31:29;2.80;;;1.15;;
22270;SDS011;11304;53.520;10.104;2023-02-28T13:36:30;3.95;;;1.30;;
22270;SDS011;11304;53.520;10.104;2023-02-28T13:57:33;2.45;;;1.25;;
22270;SDS011;11304;53.520;10.104;2023-02-28T14:00:48;2.88;;;1.60;;
22270;SDS011;11304;53.520;10.104;2023-02-28T14:05:37;4.50;;;1.40;;
22270;SDS011;11304;53.520;10.104;2023-02-28T14:08:05;2.92;;;1.30;;
22270;SDS011;11304;53.520;10.104;2023-02-28T14:10:35;3.63;;;1.45;;
22270;SDS011;11304;53.520;10.104;2023-02-28T14:15:56;4.25;;;1.70;;
22270;SDS011;11304;53.520;10.104;2023-02-28T14:18:33;3.47;;;1.67;;
22270;SDS011;11304;53.520;10.104;2023-02-28T14:21:11;5.07;;;1.48;;
22270;SDS011;11304;53.520;10.104;2023-02-28T14:31:34;3.15;;;1.55;;
22270;SDS011;11304;53.520;10.104;2023-02-28T14:38:57;3.17;;;1.58;;
22270;SDS011;11304;53.520;10.104;2023-02-28T14:43:53;3.55;;;1.50;;
22270;SDS011;11304;53.520;10.104;2023-02-28T14:46:19;6.68;;;1.50;;
22270;SDS011;11304;53.520;10.104;2023-02-28T14:48:47;2.30;;;1.30;;
22270;SDS011;11304;53.520;10.104;2023-02-28T14:51:17;5.10;;;1.38;;
22270;SDS011;11304;53.520;10.104;2023-02-28T14:53:44;3.25;;;1.65;;
22270;SDS011;11304;53.520;10.104;2023-02-28T14:56:33;2.88;;;1.52;;
22270;SDS011;11304;53.520;10.104;2023-02-28T14:59:00;3.28;;;1.50;;
22270;SDS011;11304;53.520;10.104;2023-02-28T15:01:26;3.65;;;1.25;;
22270;SDS011;11304;53.520;10.104;2023-02-28T15:04:00;2.03;;;1.42;;
22270;SDS011;11304;53.520;10.104;2023-02-28T15:06:27;3.67;;;1.30;;
22270;SDS011;11304;53.520;10.104;2023-02-28T15:09:10;3.60;;;1.40;;
22270;SDS011;11304;53.520;10.104;2023-02-28T15:11:37;4.60;;;1.40;;
22270;SDS011;11304;53.520;10.104;2023-02-28T15:14:04;2.45;;;1.20;;
22270;SDS011;11304;53.520;10.104;2023-02-28T15:16:35;3.65;;;1.50;;
22270;SDS011;11304;53.520;10.104;2023-02-28T15:19:08;2.67;;;1.50;;
22270;SDS011;11304;53.520;10.104;2023-02-28T15:21:41;6.07;;;1.75;;
22270;SDS011;11304;53.520;10.104;2023-02-28T15:24:17;3.20;;;1.58;;
22270;SDS011;11304;53.520;10.104;2023-02-28T15:26:50;4.53;;;1.70;;
22270;SDS011;11304;53.520;10.104;2023-02-28T15:29:19;3.75;;;1.80;;
22270;SDS011;11304;53.520;10.104;2023-02-28T15:31:48;3.95;;;1.75;;
22270;SDS011;11304;53.520;10.104;2023-02-28T15:34:18;2.90;;;1.65;;
22270;SDS011;11304;53.520;10.104;2023-02-28T15:36:44;2.45;;;1.38;;
22270;SDS011;11304;53.520;10.104;2023-02-28T15:39:24;3.65;;;1.70;;
22270;SDS011;11304;53.520;10.104;2023-02-28T15:41:51;2.38;;;1.40;;
22270;SDS011;11304;53.520;10.104;2023-02-28T15:44:24;2.60;;;1.58;;
22270;SDS011;11304;53.520;10.104;2023-02-28T15:47:05;4.68;;;1.75;;
22270;SDS011;11304;53.520;10.104;2023-02-28T15:49:38;1.70;;;1.30;;
22270;SDS011;11304;53.520;10.104;2023-02-28T15:52:05;2.50;;;1.27;;
22270;SDS011;11304;53.520;10.104;2023-02-28T15:54:34;4.25;;;1.30;;
22270;SDS011;11304;53.520;10.104;2023-02-28T15:57:03;3.15;;;1.98;;
22270;SDS011;11304;53.520;10.104;2023-02-28T15:59:33;3.55;;;1.67;;
22270;SDS011;11304;53.520;10.104;2023-02-28T16:04:58;4.05;;;1.50;;
22270;SDS011;11304;53.520;10.104;2023-02-28T16:07:24;4.38;;;1.75;;
22270;SDS011;11304;53.520;10.104;2023-02-28T16:09:51;3.85;;;1.50;;
22270;SDS011;11304;53.520;10.104;2023-02-28T16:12:18;3.65;;;1.67;;
22270;SDS011;11304;53.520;10.104;2023-02-28T16:14:44;2.70;;;1.52;;
22270;SDS011;11304;53.520;10.104;2023-02-28T16:17:20;3.25;;;1.77;;
22270;SDS011;11304;53.520;10.104;2023-02-28T16:19:47;3.72;;;1.60;;
22270;SDS011;11304;53.520;10.104;2023-02-28T16:22:13;4.28;;;1.63;;
22270;SDS011;11304;53.520;10.104;2023-02-28T16:24:39;2.13;;;1.35;;
22270;SDS011;11304;53.520;10.104;2023-02-28T16:27:06;3.47;;;1.25;;
22270;SDS011;11304;53.520;10.104;2023-02-28T16:29:36;3.67;;;1.60;;
22270;SDS011;11304;53.520;10.104;2023-02-28T16:32:05;4.07;;;1.45;;
22270;SDS011;11304;53.520;10.104;2023-02-28T16:34:32;2.30;;;1.58;;
22270;SDS011;11304;53.520;10.104;2023-02-28T16:36:58;2.70;;;1.52;;
22270;SDS011;11304;53.520;10.104;2023-02-28T16:39:24;2.08;;;1.48;;
22270;SDS011;11304;53.520;10.104;2023-02-28T16:41:50;3.50;;;1.55;;
22270;SDS011;11304;53.520;10.104;2023-02-28T16:46:46;2.85;;;1.60;;
22270;SDS011;11304;53.520;10.104;2023-02-28T16:49:12;3.35;;;1.55;;
22270;SDS011;11304;53.520;10.104;2023-02-28T16:51:39;2.53;;;1.50;;
22270;SDS011;11304;53.520;10.104;2023-02-28T16:54:05;2.88;;;1.50;;
22270;SDS011;11304;53.520;10.104;2023-02-28T16:56:31;4.80;;;1.48;;
22270;SDS011;11304;53.520;10.104;2023-02-28T16:58:59;3.10;;;1.60;;
22270;SDS011;11304;53.520;10.104;2023-02-28T17:01:26;6.05;;;1.80;;
22270;SDS011;11304;53.520;10.104;2023-02-28T17:03:52;12.60;;;2.85;;
22270;SDS011;11304;53.520;10.104;2023-02-28T17:06:19;27.60;;;4.45;;
22270;SDS011;11304;53.520;10.104;2023-02-28T17:08:47;21.15;;;4.65;;
22270;SDS011;11304;53.520;10.104;2023-02-28T17:11:13;13.35;;;3.65;;
22270;SDS011;11304;53.520;10.104;2023-02-28T17:13:39;9.50;;;2.35;;
22270;SDS011;11304;53.520;10.104;2023-02-28T17:16:05;4.53;;;2.00;;
22270;SDS011;11304;53.520;10.104;2023-02-28T17:18:32;7.22;;;2.53;;
22270;SDS011;11304;53.520;10.104;2023-02-28T17:21:00;14.23;;;2.50;;
22270;SDS011;11304;53.520;10.104;2023-02-28T17:23:26;21.10;;;4.47;;
22270;SDS011;11304;53.520;10.104;2023-02-28T17:25:52;17.88;;;3.80;;
22270;SDS011;11304;53.520;10.104;2023-02-28T17:28:19;14.55;;;3.35;;